sensor_id;sensor_type;location;lat;lon;timestamp;P1;durP1;ratioP1;P2;durP2;ratioP2
56005;SDS011;41888;44.696;10.522;2023-10-31T00:01:55;3.53;;;0.75;;
56005;SDS011;41888;44.696;10.522;2023-10-31T00:04:21;3.95;;;0.70;;
56005;SDS011;41888;44.696;10.522;2023-10-31T00:06:48;4.82;;;0.82;;
56005;SDS011;41888;44.696;10.522;2023-10-31T00:09:14;0.90;;;0.63;;
56005;SDS011;41888;44.696;10.522;2023-10-31T00:11:41;4.05;;;0.80;;
56005;SDS011;41888;44.696;10.522;2023-10-31T00:14:09;2.30;;;0.68;;
56005;SDS011;41888;44.696;10.522;2023-10-31T00:16:35;3.40;;;0.73;;
56005;SDS011;41888;44.696;10.522;2023-10-31T00:19:01;2.90;;;1.52;;
56005;SDS011;41888;44.696;10.522;2023-10-31T00:21:28;4.38;;;0.55;;
56005;SDS011;41888;44.696;10.522;2023-10-31T00:23:54;1.83;;;0.50;;
56005;SDS011;41888;44.696;10.522;2023-10-31T00:26:20;2.58;;;0.80;;
56005;SDS011;41888;44.696;10.522;2023-10-31T00:28:46;4.00;;;0.88;;
56005;SDS011;41888;44.696;10.522;2023-10-31T00:31:12;3.30;;;0.90;;
56005;SDS011;41888;44.696;10.522;2023-10-31T00:33:39;4.15;;;0.98;;
56005;SDS011;41888;44.696;10.522;2023-10-31T00:36:05;3.58;;;1.10;;
56005;SDS011;41888;44.696;10.522;2023-10-31T00:38:32;1.20;;;0.50;;
56005;SDS011;41888;44.696;10.522;2023-10-31T00:40:58;3.85;;;0.73;;
56005;SDS011;41888;44.696;10.522;2023-10-31T00:43:25;2.78;;;0.85;;
56005;SDS011;41888;44.696;10.522;2023-10-31T00:45:51;4.05;;;0.77;;
56005;SDS011;41888;44.696;10.522;2023-10-31T00:48:17;3.40;;;0.95;;
56005;SDS011;41888;44.696;10.522;2023-10-31T00:50:44;4.57;;;1.05;;
56005;SDS011;41888;44.696;10.522;2023-10-31T00:53:10;4.63;;;0.80;;
56005;SDS011;41888;44.696;10.522;2023-10-31T00:55:36;2.42;;;0.80;;
56005;SDS011;41888;44.696;10.522;2023-10-31T00:58:02;4.93;;;1.20;;
56005;SDS011;41888;44.696;10.522;2023-10-31T01:00:28;2.45;;;0.80;;
56005;SDS011;41888;44.696;10.522;2023-10-31T01:02:55;4.72;;;0.98;;
56005;SDS011;41888;44.696;10.522;2023-10-31T01:05:21;3.83;;;1.05;;
56005;SDS011;41888;44.696;10.522;2023-10-31T01:07:48;3.08;;;1.30;;
56005;SDS011;41888;44.696;10.522;2023-10-31T01:10:14;4.95;;;1.45;;
56005;SDS011;41888;44.696;10.522;2023-10-31T01:12:40;5.20;;;1.50;;
56005;SDS011;41888;44.696;10.522;2023-10-31T01:15:06;2.30;;;1.02;;
56005;SDS011;41888;44.696;10.522;2023-10-31T01:17:33;3.85;;;1.13;;
56005;SDS011;41888;44.696;10.522;2023-10-31T01:19:59;6.25;;;1.10;;
56005;SDS011;41888;44.696;10.522;2023-10-31T01:22:25;6.32;;;1.05;;
56005;SDS011;41888;44.696;10.522;2023-10-31T01:24:52;2.53;;;1.00;;
56005;SDS011;41888;44.696;10.522;2023-10-31T01:27:18;2.97;;;0.80;;
56005;SDS011;41888;44.696;10.522;2023-10-31T01:29:44;2.10;;;0.80;;
56005;SDS011;41888;44.696;10.522;2023-10-31T01:32:10;3.20;;;1.00;;
56005;SDS011;41888;44.696;10.522;2023-10-31T01:34:37;6.03;;;1.38;;
56005;SDS011;41888;44.696;10.522;2023-10-31T01:37:03;5.22;;;1.17;;
56005;SDS011;41888;44.696;10.522;2023-10-31T01:39:30;2.65;;;1.60;;
56005;SDS011;41888;44.696;10.522;2023-10-31T01:41:56;8.50;;;0.80;;
56005;SDS011;41888;44.696;10.522;2023-10-31T01:44:22;7.75;;;0.98;;
56005;SDS011;41888;44.696;10.522;2023-10-31T01:46:48;2.80;;;0.73;;
56005;SDS011;41888;44.696;10.522;2023-10-31T01:49:14;3.30;;;0.70;;
56005;SDS011;41888;44.696;10.522;2023-10-31T01:51:41;6.40;;;0.88;;
56005;SDS011;41888;44.696;10.522;2023-10-31T01:54:08;4.28;;;0.75;;
56005;SDS011;41888;44.696;10.522;2023-10-31T01:56:35;3.33;;;1.15;;
56005;SDS011;41888;44.696;10.522;2023-10-31T01:59:02;9.10;;;1.30;;
56005;SDS011;41888;44.696;10.522;2023-10-31T02:01:31;4.47;;;0.93;;
56005;SDS011;41888;44.696;10.522;2023-10-31T02:04:01;2.33;;;0.80;;
56005;SDS011;41888;44.696;10.522;2023-10-31T02:06:27;1.10;;;0.55;;
56005;SDS011;41888;44.696;10.522;2023-10-31T02:08:55;2.80;;;0.80;;
56005;SDS011;41888;44.696;10.522;2023-10-31T02:11:21;2.20;;;0.77;;
56005;SDS011;41888;44.696;10.522;2023-10-31T02:13:48;3.67;;;0.73;;
56005;SDS011;41888;44.696;10.522;2023-10-31T02:16:14;4.32;;;0.85;;
56005;SDS011;41888;44.696;10.522;2023-10-31T02:18:40;5.18;;;1.00;;
56005;SDS011;41888;44.696;10.522;2023-10-31T02:21:07;3.13;;;0.80;;
56005;SDS011;41888;44.696;10.522;2023-10-31T02:23:33;6.70;;;0.90;;
56005;SDS011;41888;44.696;10.522;2023-10-31T02:25:59;5.05;;;0.75;;
56005;SDS011;41888;44.696;10.522;2023-10-31T02:28:25;2.55;;;0.88;;
56005;SDS011;41888;44.696;10.522;2023-10-31T02:30:53;1.52;;;0.90;;
56005;SDS011;41888;44.696;10.522;2023-10-31T02:33:22;3.65;;;1.05;;
56005;SDS011;41888;44.696;10.522;2023-10-31T02:35:48;3.28;;;1.05;;
56005;SDS011;41888;44.696;10.522;2023-10-31T02:38:15;1.38;;;0.63;;
56005;SDS011;41888;44.696;10.522;2023-10-31T02:40:41;2.65;;;0.90;;
56005;SDS011;41888;44.696;10.522;2023-10-31T02:43:07;6.18;;;0.80;;
56005;SDS011;41888;44.696;10.522;2023-10-31T02:45:33;6.05;;;1.02;;
56005;SDS011;41888;44.696;10.522;2023-10-31T02:47:59;2.08;;;0.85;;
56005;SDS011;41888;44.696;10.522;2023-10-31T02:50:26;2.80;;;0.82;;
56005;SDS011;41888;44.696;10.522;2023-10-31T02:52:52;1.55;;;0.73;;
56005;SDS011;41888;44.696;10.522;2023-10-31T02:55:18;3.47;;;1.40;;
56005;SDS011;41888;44.696;10.522;2023-10-31T02:57:44;2.17;;;0.50;;
56005;SDS011;41888;44.696;10.522;2023-10-31T03:00:11;2.28;;;1.05;;
56005;SDS011;41888;44.696;10.522;2023-10-31T03:02:37;1.95;;;0.77;;
56005;SDS011;41888;44.696;10.522;2023-10-31T03:05:03;3.13;;;0.90;;
56005;SDS011;41888;44.696;10.522;2023-10-31T03:07:30;4.70;;;1.10;;
56005;SDS011;41888;44.696;10.522;2023-10-31T03:09:56;2.55;;;0.80;;
56005;SDS011;41888;44.696;10.522;2023-10-31T03:12:23;2.53;;;0.80;;
56005;SDS011;41888;44.696;10.522;2023-10-31T03:14:49;9.35;;;0.95;;
56005;SDS011;41888;44.696;10.522;2023-10-31T03:17:15;4.43;;;0.88;;
56005;SDS011;41888;44.696;10.522;2023-10-31T03:19:41;3.08;;;1.00;;
56005;SDS011;41888;44.696;10.522;2023-10-31T03:22:08;4.07;;;0.93;;
56005;SDS011;41888;44.696;10.522;2023-10-31T03:24:34;2.22;;;0.68;;
56005;SDS011;41888;44.696;10.522;2023-10-31T03:27:00;3.80;;;1.67;;
56005;SDS011;41888;44.696;10.522;2023-10-31T03:29:26;3.97;;;0.95;;
56005;SDS011;41888;44.696;10.522;2023-10-31T03:31:53;1.70;;;0.90;;
56005;SDS011;41888;44.696;10.522;2023-10-31T03:34:19;2.50;;;0.70;;
56005;SDS011;41888;44.696;10.522;2023-10-31T03:36:45;3.92;;;1.00;;
56005;SDS011;41888;44.696;10.522;2023-10-31T03:39:11;2.65;;;0.73;;
56005;SDS011;41888;44.696;10.522;2023-10-31T03:41:37;2.13;;;0.40;;
56005;SDS011;41888;44.696;10.522;2023-10-31T03:44:04;3.45;;;0.70;;
56005;SDS011;41888;44.696;10.522;2023-10-31T03:46:30;4.40;;;1.38;;
56005;SDS011;41888;44.696;10.522;2023-10-31T03:48:56;5.25;;;0.90;;
56005;SDS011;41888;44.696;10.522;2023-10-31T03:51:22;4.60;;;0.77;;
56005;SDS011;41888;44.696;10.522;2023-10-31T03:53:48;1.77;;;0.68;;
56005;SDS011;41888;44.696;10.522;2023-10-31T03:56:15;3.63;;;0.47;;
56005;SDS011;41888;44.696;10.522;2023-10-31T03:58:42;11.63;;;0.93;;
56005;SDS011;41888;44.696;10.522;2023-10-31T04:01:08;2.90;;;0.68;;
56005;SDS011;41888;44.696;10.522;2023-10-31T04:03:34;2.97;;;0.65;;
56005;SDS011;41888;44.696;10.522;2023-10-31T04:06:01;2.67;;;1.25;;
56005;SDS011;41888;44.696;10.522;2023-10-31T04:08:27;1.17;;;0.60;;
56005;SDS011;41888;44.696;10.522;2023-10-31T04:10:53;1.55;;;0.50;;
56005;SDS011;41888;44.696;10.522;2023-10-31T04:13:19;2.55;;;0.55;;
56005;SDS011;41888;44.696;10.522;2023-10-31T04:15:45;2.47;;;0.60;;
56005;SDS011;41888;44.696;10.522;2023-10-31T04:18:12;2.70;;;0.52;;
56005;SDS011;41888;44.696;10.522;2023-10-31T04:20:38;2.53;;;0.47;;
56005;SDS011;41888;44.696;10.522;2023-10-31T04:23:04;2.78;;;0.55;;
56005;SDS011;41888;44.696;10.522;2023-10-31T04:25:31;2.08;;;0.30;;
56005;SDS011;41888;44.696;10.522;2023-10-31T04:27:57;0.43;;;0.35;;
56005;SDS011;41888;44.696;10.522;2023-10-31T04:30:24;1.23;;;0.45;;
56005;SDS011;41888;44.696;10.522;2023-10-31T04:32:50;1.33;;;0.60;;
56005;SDS011;41888;44.696;10.522;2023-10-31T04:35:16;2.35;;;0.35;;
56005;SDS011;41888;44.696;10.522;2023-10-31T04:37:42;2.53;;;0.70;;
56005;SDS011;41888;44.696;10.522;2023-10-31T04:40:08;2.55;;;0.30;;
56005;SDS011;41888;44.696;10.522;2023-10-31T04:42:35;1.38;;;0.32;;
56005;SDS011;41888;44.696;10.522;2023-10-31T04:45:03;1.67;;;0.40;;
56005;SDS011;41888;44.696;10.522;2023-10-31T04:47:30;2.42;;;0.68;;
56005;SDS011;41888;44.696;10.522;2023-10-31T04:49:56;3.22;;;0.55;;
56005;SDS011;41888;44.696;10.522;2023-10-31T04:52:22;1.92;;;0.50;;
56005;SDS011;41888;44.696;10.522;2023-10-31T04:54:50;2.30;;;0.50;;
56005;SDS011;41888;44.696;10.522;2023-10-31T04:57:17;4.07;;;0.57;;
56005;SDS011;41888;44.696;10.522;2023-10-31T04:59:43;2.75;;;0.50;;
56005;SDS011;41888;44.696;10.522;2023-10-31T05:02:09;2.83;;;0.35;;
56005;SDS011;41888;44.696;10.522;2023-10-31T05:04:38;1.92;;;0.40;;
56005;SDS011;41888;44.696;10.522;2023-10-31T05:07:07;2.03;;;0.40;;
56005;SDS011;41888;44.696;10.522;2023-10-31T05:09:34;4.30;;;1.02;;
56005;SDS011;41888;44.696;10.522;2023-10-31T05:12:00;1.85;;;0.40;;
56005;SDS011;41888;44.696;10.522;2023-10-31T05:14:27;1.50;;;0.30;;
56005;SDS011;41888;44.696;10.522;2023-10-31T05:16:53;1.48;;;0.40;;
56005;SDS011;41888;44.696;10.522;2023-10-31T05:19:19;3.40;;;0.30;;
56005;SDS011;41888;44.696;10.522;2023-10-31T05:21:45;1.70;;;0.80;;
56005;SDS011;41888;44.696;10.522;2023-10-31T05:24:12;3.22;;;0.52;;
56005;SDS011;41888;44.696;10.522;2023-10-31T05:26:39;0.93;;;0.40;;
56005;SDS011;41888;44.696;10.522;2023-10-31T05:29:07;2.55;;;0.40;;
56005;SDS011;41888;44.696;10.522;2023-10-31T05:31:34;1.83;;;0.52;;
56005;SDS011;41888;44.696;10.522;2023-10-31T05:34:00;2.53;;;0.57;;
56005;SDS011;41888;44.696;10.522;2023-10-31T05:36:28;2.42;;;0.32;;
56005;SDS011;41888;44.696;10.522;2023-10-31T05:38:54;2.97;;;0.40;;
56005;SDS011;41888;44.696;10.522;2023-10-31T05:41:21;3.05;;;0.30;;
56005;SDS011;41888;44.696;10.522;2023-10-31T05:43:47;1.27;;;0.28;;
56005;SDS011;41888;44.696;10.522;2023-10-31T05:46:13;1.75;;;0.40;;
56005;SDS011;41888;44.696;10.522;2023-10-31T05:48:46;3.45;;;0.50;;
56005;SDS011;41888;44.696;10.522;2023-10-31T05:51:14;3.70;;;0.93;;
56005;SDS011;41888;44.696;10.522;2023-10-31T05:53:42;2.28;;;0.52;;
56005;SDS011;41888;44.696;10.522;2023-10-31T05:56:11;4.28;;;0.40;;
56005;SDS011;41888;44.696;10.522;2023-10-31T05:58:38;3.10;;;0.52;;
56005;SDS011;41888;44.696;10.522;2023-10-31T06:01:04;6.47;;;1.45;;
56005;SDS011;41888;44.696;10.522;2023-10-31T06:03:31;4.55;;;0.40;;
56005;SDS011;41888;44.696;10.522;2023-10-31T06:05:57;1.13;;;0.43;;
56005;SDS011;41888;44.696;10.522;2023-10-31T06:08:24;1.23;;;0.20;;
56005;SDS011;41888;44.696;10.522;2023-10-31T06:10:53;1.58;;;0.50;;
56005;SDS011;41888;44.696;10.522;2023-10-31T06:13:20;3.80;;;0.60;;
56005;SDS011;41888;44.696;10.522;2023-10-31T06:15:47;2.35;;;0.40;;
56005;SDS011;41888;44.696;10.522;2023-10-31T06:18:13;4.32;;;1.05;;
56005;SDS011;41888;44.696;10.522;2023-10-31T06:20:39;2.08;;;0.80;;
56005;SDS011;41888;44.696;10.522;2023-10-31T06:23:05;1.92;;;0.25;;
56005;SDS011;41888;44.696;10.522;2023-10-31T06:25:31;4.53;;;0.47;;
56005;SDS011;41888;44.696;10.522;2023-10-31T06:27:58;4.95;;;0.77;;
56005;SDS011;41888;44.696;10.522;2023-10-31T06:30:24;4.60;;;0.57;;
56005;SDS011;41888;44.696;10.522;2023-10-31T06:32:51;2.03;;;0.40;;
56005;SDS011;41888;44.696;10.522;2023-10-31T06:35:18;6.28;;;1.45;;
56005;SDS011;41888;44.696;10.522;2023-10-31T06:37:44;2.72;;;0.32;;
56005;SDS011;41888;44.696;10.522;2023-10-31T06:40:10;2.40;;;0.47;;
56005;SDS011;41888;44.696;10.522;2023-10-31T06:42:36;6.72;;;0.90;;
56005;SDS011;41888;44.696;10.522;2023-10-31T06:45:03;2.38;;;0.88;;
56005;SDS011;41888;44.696;10.522;2023-10-31T06:47:30;5.38;;;0.60;;
56005;SDS011;41888;44.696;10.522;2023-10-31T06:49:56;5.43;;;0.90;;
56005;SDS011;41888;44.696;10.522;2023-10-31T06:52:22;1.85;;;0.70;;
56005;SDS011;41888;44.696;10.522;2023-10-31T06:54:48;3.40;;;0.20;;
56005;SDS011;41888;44.696;10.522;2023-10-31T06:57:15;4.22;;;0.20;;
56005;SDS011;41888;44.696;10.522;2023-10-31T06:59:41;0.68;;;0.20;;
56005;SDS011;41888;44.696;10.522;2023-10-31T07:02:07;2.28;;;0.20;;
56005;SDS011;41888;44.696;10.522;2023-10-31T07:04:34;3.80;;;0.17;;
56005;SDS011;41888;44.696;10.522;2023-10-31T07:07:00;0.57;;;0.32;;
56005;SDS011;41888;44.696;10.522;2023-10-31T07:09:26;2.60;;;0.57;;
56005;SDS011;41888;44.696;10.522;2023-10-31T07:11:53;0.73;;;0.22;;
56005;SDS011;41888;44.696;10.522;2023-10-31T07:14:19;1.20;;;0.20;;
56005;SDS011;41888;44.696;10.522;2023-10-31T07:16:45;3.20;;;0.20;;
56005;SDS011;41888;44.696;10.522;2023-10-31T07:19:13;2.30;;;0.20;;
56005;SDS011;41888;44.696;10.522;2023-10-31T07:21:39;1.60;;;0.30;;
56005;SDS011;41888;44.696;10.522;2023-10-31T07:24:05;0.20;;;0.20;;
56005;SDS011;41888;44.696;10.522;2023-10-31T07:26:34;0.43;;;0.10;;
56005;SDS011;41888;44.696;10.522;2023-10-31T07:29:00;0.10;;;0.10;;
56005;SDS011;41888;44.696;10.522;2023-10-31T07:31:27;0.10;;;0.10;;
56005;SDS011;41888;44.696;10.522;2023-10-31T07:33:53;0.40;;;0.30;;
56005;SDS011;41888;44.696;10.522;2023-10-31T07:36:19;3.47;;;0.20;;
56005;SDS011;41888;44.696;10.522;2023-10-31T07:38:45;0.60;;;0.20;;
56005;SDS011;41888;44.696;10.522;2023-10-31T07:41:11;0.28;;;0.10;;
56005;SDS011;41888;44.696;10.522;2023-10-31T07:43:38;2.28;;;0.30;;
56005;SDS011;41888;44.696;10.522;2023-10-31T07:46:04;1.13;;;0.40;;
56005;SDS011;41888;44.696;10.522;2023-10-31T07:48:31;0.38;;;0.20;;
56005;SDS011;41888;44.696;10.522;2023-10-31T07:50:57;0.98;;;0.15;;
56005;SDS011;41888;44.696;10.522;2023-10-31T07:53:23;0.45;;;0.10;;
56005;SDS011;41888;44.696;10.522;2023-10-31T07:55:49;0.00;;;0.00;;
56005;SDS011;41888;44.696;10.522;2023-10-31T07:58:15;0.15;;;0.08;;
56005;SDS011;41888;44.696;10.522;2023-10-31T08:00:42;0.10;;;0.10;;
56005;SDS011;41888;44.696;10.522;2023-10-31T08:03:08;0.77;;;0.10;;
56005;SDS011;41888;44.696;10.522;2023-10-31T08:05:34;0.43;;;0.43;;
56005;SDS011;41888;44.696;10.522;2023-10-31T08:08:00;1.08;;;0.05;;
56005;SDS011;41888;44.696;10.522;2023-10-31T08:10:27;0.52;;;0.28;;
56005;SDS011;41888;44.696;10.522;2023-10-31T08:12:54;0.73;;;0.40;;
56005;SDS011;41888;44.696;10.522;2023-10-31T08:15:21;0.17;;;0.10;;
56005;SDS011;41888;44.696;10.522;2023-10-31T08:17:47;0.10;;;0.10;;
56005;SDS011;41888;44.696;10.522;2023-10-31T08:20:13;0.47;;;0.28;;
56005;SDS011;41888;44.696;10.522;2023-10-31T08:22:39;0.20;;;0.10;;
56005;SDS011;41888;44.696;10.522;2023-10-31T08:25:07;1.95;;;0.10;;
56005;SDS011;41888;44.696;10.522;2023-10-31T08:27:34;0.10;;;0.10;;
56005;SDS011;41888;44.696;10.522;2023-10-31T08:30:00;0.20;;;0.10;;
56005;SDS011;41888;44.696;10.522;2023-10-31T08:32:27;0.35;;;0.10;;
56005;SDS011;41888;44.696;10.522;2023-10-31T08:34:53;2.45;;;0.00;;
56005;SDS011;41888;44.696;10.522;2023-10-31T08:37:21;0.13;;;0.10;;
56005;SDS011;41888;44.696;10.522;2023-10-31T08:39:47;0.52;;;0.20;;
56005;SDS011;41888;44.696;10.522;2023-10-31T08:42:14;1.85;;;0.17;;
56005;SDS011;41888;44.696;10.522;2023-10-31T08:44:40;1.50;;;0.52;;
56005;SDS011;41888;44.696;10.522;2023-10-31T08:47:06;0.50;;;0.10;;
56005;SDS011;41888;44.696;10.522;2023-10-31T08:49:33;0.20;;;0.10;;
56005;SDS011;41888;44.696;10.522;2023-10-31T08:51:59;1.75;;;0.40;;
56005;SDS011;41888;44.696;10.522;2023-10-31T08:54:27;0.50;;;0.17;;
56005;SDS011;41888;44.696;10.522;2023-10-31T08:56:53;0.52;;;0.30;;
56005;SDS011;41888;44.696;10.522;2023-10-31T08:59:19;0.43;;;0.10;;
56005;SDS011;41888;44.696;10.522;2023-10-31T09:01:45;0.10;;;0.00;;
56005;SDS011;41888;44.696;10.522;2023-10-31T09:04:11;0.90;;;0.13;;
56005;SDS011;41888;44.696;10.522;2023-10-31T09:06:37;0.20;;;0.10;;
56005;SDS011;41888;44.696;10.522;2023-10-31T09:09:04;0.88;;;0.10;;
56005;SDS011;41888;44.696;10.522;2023-10-31T09:11:30;0.10;;;0.10;;
56005;SDS011;41888;44.696;10.522;2023-10-31T09:13:56;0.20;;;0.10;;
56005;SDS011;41888;44.696;10.522;2023-10-31T09:16:22;0.38;;;0.20;;
56005;SDS011;41888;44.696;10.522;2023-10-31T09:18:48;0.10;;;0.05;;
56005;SDS011;41888;44.696;10.522;2023-10-31T09:21:14;0.10;;;0.10;;
56005;SDS011;41888;44.696;10.522;2023-10-31T09:23:41;0.10;;;0.10;;
56005;SDS011;41888;44.696;10.522;2023-10-31T09:26:07;0.47;;;0.10;;
56005;SDS011;41888;44.696;10.522;2023-10-31T09:28:35;1.95;;;0.30;;
56005;SDS011;41888;44.696;10.522;2023-10-31T09:31:04;1.15;;;0.10;;
56005;SDS011;41888;44.696;10.522;2023-10-31T09:33:30;0.65;;;0.17;;
56005;SDS011;41888;44.696;10.522;2023-10-31T09:35:56;0.20;;;0.10;;
56005;SDS011;41888;44.696;10.522;2023-10-31T09:38:22;0.10;;;0.10;;
56005;SDS011;41888;44.696;10.522;2023-10-31T09:40:49;0.45;;;0.10;;
56005;SDS011;41888;44.696;10.522;2023-10-31T09:43:15;0.85;;;0.22;;
56005;SDS011;41888;44.696;10.522;2023-10-31T09:45:42;0.20;;;0.20;;
56005;SDS011;41888;44.696;10.522;2023-10-31T09:48:10;0.05;;;0.00;;
56005;SDS011;41888;44.696;10.522;2023-10-31T09:50:36;0.17;;;0.10;;
56005;SDS011;41888;44.696;10.522;2023-10-31T09:53:03;0.10;;;0.10;;
56005;SDS011;41888;44.696;10.522;2023-10-31T09:55:33;0.10;;;0.10;;
56005;SDS011;41888;44.696;10.522;2023-10-31T09:58:00;0.10;;;0.10;;
56005;SDS011;41888;44.696;10.522;2023-10-31T10:00:26;0.47;;;0.20;;
56005;SDS011;41888;44.696;10.522;2023-10-31T10:02:53;0.10;;;0.10;;
56005;SDS011;41888;44.696;10.522;2023-10-31T10:05:20;0.60;;;0.10;;
56005;SDS011;41888;44.696;10.522;2023-10-31T10:07:48;0.57;;;0.10;;
56005;SDS011;41888;44.696;10.522;2023-10-31T10:10:15;0.32;;;0.20;;
56005;SDS011;41888;44.696;10.522;2023-10-31T10:12:42;1.75;;;0.20;;
56005;SDS011;41888;44.696;10.522;2023-10-31T10:15:09;0.10;;;0.10;;
56005;SDS011;41888;44.696;10.522;2023-10-31T10:17:37;0.30;;;0.10;;
56005;SDS011;41888;44.696;10.522;2023-10-31T10:20:08;0.43;;;0.10;;
56005;SDS011;41888;44.696;10.522;2023-10-31T10:22:36;2.00;;;0.60;;
56005;SDS011;41888;44.696;10.522;2023-10-31T10:25:05;0.98;;;0.40;;
56005;SDS011;41888;44.696;10.522;2023-10-31T10:27:32;1.67;;;0.68;;
56005;SDS011;41888;44.696;10.522;2023-10-31T10:29:58;1.02;;;0.30;;
56005;SDS011;41888;44.696;10.522;2023-10-31T10:32:24;1.48;;;0.43;;
56005;SDS011;41888;44.696;10.522;2023-10-31T10:34:51;1.52;;;0.40;;
56005;SDS011;41888;44.696;10.522;2023-10-31T10:37:17;0.57;;;0.20;;
56005;SDS011;41888;44.696;10.522;2023-10-31T10:39:46;0.38;;;0.10;;
56005;SDS011;41888;44.696;10.522;2023-10-31T10:42:18;0.43;;;0.10;;
56005;SDS011;41888;44.696;10.522;2023-10-31T10:44:55;0.32;;;0.10;;
56005;SDS011;41888;44.696;10.522;2023-10-31T10:47:28;1.10;;;0.10;;
56005;SDS011;41888;44.696;10.522;2023-10-31T10:49:58;0.10;;;0.08;;
56005;SDS011;41888;44.696;10.522;2023-10-31T10:55:12;0.47;;;0.10;;
56005;SDS011;41888;44.696;10.522;2023-10-31T10:58:02;2.53;;;0.22;;
56005;SDS011;41888;44.696;10.522;2023-10-31T11:00:30;0.22;;;0.20;;
56005;SDS011;41888;44.696;10.522;2023-10-31T11:02:57;0.82;;;0.17;;
56005;SDS011;41888;44.696;10.522;2023-10-31T11:05:24;0.22;;;0.03;;
56005;SDS011;41888;44.696;10.522;2023-10-31T11:07:51;0.10;;;0.10;;
56005;SDS011;41888;44.696;10.522;2023-10-31T11:10:19;0.28;;;0.10;;
56005;SDS011;41888;44.696;10.522;2023-10-31T11:12:46;1.48;;;0.65;;
56005;SDS011;41888;44.696;10.522;2023-10-31T11:15:13;0.60;;;0.10;;
56005;SDS011;41888;44.696;10.522;2023-10-31T11:17:44;2.78;;;0.55;;
56005;SDS011;41888;44.696;10.522;2023-10-31T11:20:13;1.40;;;0.20;;
56005;SDS011;41888;44.696;10.522;2023-10-31T11:22:41;0.20;;;0.10;;
56005;SDS011;41888;44.696;10.522;2023-10-31T11:25:15;0.17;;;0.10;;
56005;SDS011;41888;44.696;10.522;2023-10-31T11:27:51;0.03;;;0.00;;
56005;SDS011;41888;44.696;10.522;2023-10-31T11:30:22;0.28;;;0.13;;
56005;SDS011;41888;44.696;10.522;2023-10-31T11:32:55;0.10;;;0.10;;
56005;SDS011;41888;44.696;10.522;2023-10-31T11:35:24;0.10;;;0.00;;
56005;SDS011;41888;44.696;10.522;2023-10-31T11:38:00;0.10;;;0.10;;
56005;SDS011;41888;44.696;10.522;2023-10-31T11:40:28;1.05;;;0.10;;
56005;SDS011;41888;44.696;10.522;2023-10-31T11:42:58;0.20;;;0.10;;
56005;SDS011;41888;44.696;10.522;2023-10-31T11:45:33;0.32;;;0.10;;
56005;SDS011;41888;44.696;10.522;2023-10-31T11:48:01;0.20;;;0.03;;
56005;SDS011;41888;44.696;10.522;2023-10-31T11:50:30;0.98;;;0.20;;
56005;SDS011;41888;44.696;10.522;2023-10-31T11:55:38;0.65;;;0.10;;
56005;SDS011;41888;44.696;10.522;2023-10-31T11:58:22;0.10;;;0.00;;
56005;SDS011;41888;44.696;10.522;2023-10-31T12:00:51;0.10;;;0.03;;
56005;SDS011;41888;44.696;10.522;2023-10-31T12:03:25;0.30;;;0.00;;
56005;SDS011;41888;44.696;10.522;2023-10-31T12:05:55;0.28;;;0.10;;
56005;SDS011;41888;44.696;10.522;2023-10-31T12:08:32;0.45;;;0.10;;
56005;SDS011;41888;44.696;10.522;2023-10-31T12:13:35;0.10;;;0.10;;
56005;SDS011;41888;44.696;10.522;2023-10-31T12:16:04;0.00;;;0.00;;
56005;SDS011;41888;44.696;10.522;2023-10-31T12:18:31;0.10;;;0.10;;
56005;SDS011;41888;44.696;10.522;2023-10-31T12:21:00;0.13;;;0.10;;
56005;SDS011;41888;44.696;10.522;2023-10-31T12:23:26;0.30;;;0.10;;
56005;SDS011;41888;44.696;10.522;2023-10-31T12:25:53;0.40;;;0.10;;
56005;SDS011;41888;44.696;10.522;2023-10-31T12:28:19;0.47;;;0.30;;
56005;SDS011;41888;44.696;10.522;2023-10-31T12:30:50;0.52;;;0.10;;
56005;SDS011;41888;44.696;10.522;2023-10-31T12:33:21;0.40;;;0.30;;
56005;SDS011;41888;44.696;10.522;2023-10-31T12:35:51;0.32;;;0.20;;
56005;SDS011;41888;44.696;10.522;2023-10-31T12:38:22;2.58;;;0.30;;
56005;SDS011;41888;44.696;10.522;2023-10-31T12:40:49;1.67;;;0.20;;
56005;SDS011;41888;44.696;10.522;2023-10-31T12:43:16;1.08;;;0.20;;
56005;SDS011;41888;44.696;10.522;2023-10-31T12:45:43;3.45;;;0.35;;
56005;SDS011;41888;44.696;10.522;2023-10-31T12:48:09;0.40;;;0.20;;
56005;SDS011;41888;44.696;10.522;2023-10-31T12:50:37;1.05;;;0.30;;
56005;SDS011;41888;44.696;10.522;2023-10-31T12:53:07;1.52;;;0.38;;
56005;SDS011;41888;44.696;10.522;2023-10-31T12:55:37;3.00;;;0.52;;
56005;SDS011;41888;44.696;10.522;2023-10-31T12:58:05;1.30;;;0.28;;
56005;SDS011;41888;44.696;10.522;2023-10-31T13:00:32;1.35;;;0.30;;
56005;SDS011;41888;44.696;10.522;2023-10-31T13:03:03;2.90;;;0.70;;
56005;SDS011;41888;44.696;10.522;2023-10-31T13:05:31;1.52;;;0.35;;
56005;SDS011;41888;44.696;10.522;2023-10-31T13:08:01;3.13;;;0.50;;
56005;SDS011;41888;44.696;10.522;2023-10-31T13:10:30;1.95;;;0.30;;
56005;SDS011;41888;44.696;10.522;2023-10-31T13:12:59;0.63;;;0.28;;
56005;SDS011;41888;44.696;10.522;2023-10-31T13:15:26;4.30;;;1.08;;
56005;SDS011;41888;44.696;10.522;2023-10-31T13:17:52;2.33;;;0.50;;
56005;SDS011;41888;44.696;10.522;2023-10-31T13:20:18;1.58;;;0.30;;
56005;SDS011;41888;44.696;10.522;2023-10-31T13:22:46;1.55;;;0.35;;
56005;SDS011;41888;44.696;10.522;2023-10-31T13:25:13;3.92;;;0.57;;
56005;SDS011;41888;44.696;10.522;2023-10-31T13:27:41;2.53;;;0.43;;
56005;SDS011;41888;44.696;10.522;2023-10-31T13:30:10;2.40;;;0.60;;
56005;SDS011;41888;44.696;10.522;2023-10-31T13:32:40;2.83;;;0.50;;
56005;SDS011;41888;44.696;10.522;2023-10-31T13:35:06;2.47;;;0.57;;
56005;SDS011;41888;44.696;10.522;2023-10-31T13:37:36;2.25;;;0.50;;
56005;SDS011;41888;44.696;10.522;2023-10-31T13:40:02;1.73;;;0.30;;
56005;SDS011;41888;44.696;10.522;2023-10-31T13:42:30;2.03;;;0.30;;
56005;SDS011;41888;44.696;10.522;2023-10-31T13:44:56;3.38;;;0.60;;
56005;SDS011;41888;44.696;10.522;2023-10-31T13:47:22;2.05;;;0.30;;
56005;SDS011;41888;44.696;10.522;2023-10-31T13:49:48;3.33;;;0.75;;
56005;SDS011;41888;44.696;10.522;2023-10-31T13:52:14;3.67;;;1.05;;
56005;SDS011;41888;44.696;10.522;2023-10-31T13:54:41;3.80;;;0.55;;
56005;SDS011;41888;44.696;10.522;2023-10-31T13:57:07;1.25;;;0.50;;
56005;SDS011;41888;44.696;10.522;2023-10-31T13:59:33;5.63;;;0.90;;
56005;SDS011;41888;44.696;10.522;2023-10-31T14:02:00;4.82;;;0.85;;
56005;SDS011;41888;44.696;10.522;2023-10-31T14:04:26;3.20;;;0.40;;
56005;SDS011;41888;44.696;10.522;2023-10-31T14:06:53;1.85;;;0.47;;
56005;SDS011;41888;44.696;10.522;2023-10-31T14:09:20;2.58;;;0.90;;
56005;SDS011;41888;44.696;10.522;2023-10-31T14:11:46;7.90;;;1.00;;
56005;SDS011;41888;44.696;10.522;2023-10-31T14:14:12;4.40;;;0.85;;
56005;SDS011;41888;44.696;10.522;2023-10-31T14:16:39;6.40;;;0.95;;
56005;SDS011;41888;44.696;10.522;2023-10-31T14:19:06;3.92;;;1.25;;
56005;SDS011;41888;44.696;10.522;2023-10-31T14:21:35;5.93;;;0.77;;
56005;SDS011;41888;44.696;10.522;2023-10-31T14:24:02;3.25;;;0.93;;
56005;SDS011;41888;44.696;10.522;2023-10-31T14:26:29;6.80;;;1.50;;
56005;SDS011;41888;44.696;10.522;2023-10-31T14:28:57;10.18;;;1.00;;
56005;SDS011;41888;44.696;10.522;2023-10-31T14:31:24;5.50;;;0.90;;
56005;SDS011;41888;44.696;10.522;2023-10-31T14:33:51;3.83;;;0.90;;
56005;SDS011;41888;44.696;10.522;2023-10-31T14:36:17;10.20;;;1.42;;
56005;SDS011;41888;44.696;10.522;2023-10-31T14:38:43;4.88;;;0.98;;
56005;SDS011;41888;44.696;10.522;2023-10-31T14:41:09;4.43;;;0.60;;